createdAt,value
2023-01-19T00:00:24.856Z,26.15
2023-01-19T00:05:27.098Z,25.80
2023-01-19T00:10:29.305Z,23.88
2023-01-19T00:15:32.987Z,29.60
2023-01-19T00:20:35.268Z,26.63
2023-01-19T00:25:38.577Z,21.83
2023-01-19T00:30:43.260Z,24.00
2023-01-19T00:35:50.579Z,24.60
2023-01-19T00:40:53.015Z,22.60
2023-01-19T00:45:56.650Z,25.77
2023-01-19T00:50:59.039Z,21.42
2023-01-19T00:56:01.233Z,21.80
2023-01-19T01:01:05.257Z,25.23
2023-01-19T01:06:07.581Z,24.00
2023-01-19T01:11:09.765Z,31.60
2023-01-19T01:16:15.432Z,23.00
2023-01-19T01:21:17.601Z,20.80
2023-01-19T01:26:19.815Z,26.77
2023-01-19T01:31:23.493Z,23.63
2023-01-19T01:36:25.894Z,22.87
2023-01-19T01:41:28.042Z,26.60
2023-01-19T01:46:33.203Z,24.53
2023-01-19T01:51:42.308Z,24.38
2023-01-19T01:56:47.759Z,21.23
2023-01-19T02:01:52.222Z,23.50
2023-01-19T02:06:54.439Z,26.50
2023-01-19T02:11:57.269Z,24.17
2023-01-19T02:17:01.313Z,25.95
2023-01-19T02:22:12.761Z,23.27
2023-01-19T02:27:17.302Z,23.97
2023-01-19T02:32:19.594Z,21.55
2023-01-19T02:37:22.300Z,22.60
2023-01-19T02:42:32.280Z,24.92
2023-01-19T02:47:39.350Z,23.67
2023-01-19T02:52:41.631Z,27.53
2023-01-19T02:57:58.415Z,25.55
2023-01-19T03:03:20.596Z,29.13
2023-01-19T03:08:42.267Z,24.33
2023-01-19T03:13:52.877Z,26.30
2023-01-19T03:19:02.964Z,26.57
2023-01-19T03:24:09.734Z,22.58
2023-01-19T03:29:17.097Z,26.50
2023-01-19T03:34:21.524Z,24.83
2023-01-19T03:39:26.637Z,27.33
2023-01-19T03:44:34.784Z,26.00
2023-01-19T03:49:40.289Z,24.58
2023-01-19T03:54:42.931Z,24.83
2023-01-19T03:59:46.407Z,27.20
2023-01-19T04:04:48.548Z,32.30
2023-01-19T04:09:50.701Z,37.63
2023-01-19T04:14:54.486Z,34.25
2023-01-19T04:19:56.677Z,31.27
2023-01-19T04:24:58.979Z,30.92
2023-01-19T04:30:04.365Z,30.90
2023-01-19T04:35:07.127Z,28.53
2023-01-19T04:40:11.214Z,31.05
2023-01-19T04:45:15.388Z,34.10
2023-01-19T04:50:17.792Z,33.40
2023-01-19T04:55:19.954Z,33.80
2023-01-19T05:00:23.836Z,34.40
2023-01-19T05:05:25.962Z,30.88
2023-01-19T05:10:28.307Z,34.47
2023-01-19T05:15:32.005Z,23.55
2023-01-19T05:20:34.302Z,21.13
2023-01-19T05:25:36.544Z,22.00
2023-01-19T05:30:40.290Z,21.52
2023-01-19T05:35:42.574Z,21.60
2023-01-19T05:40:44.932Z,19.70
2023-01-19T05:45:48.628Z,19.83
2023-01-19T05:50:51.588Z,23.07
2023-01-19T05:55:54.538Z,22.60
2023-01-19T06:01:03.782Z,25.20
2023-01-19T06:06:07.221Z,28.70
2023-01-19T06:11:09.739Z,28.52
2023-01-19T06:16:13.616Z,25.93
2023-01-19T06:21:16.182Z,27.33
2023-01-19T06:26:18.721Z,23.67
2023-01-19T06:31:22.920Z,24.10
2023-01-19T06:36:25.627Z,26.05
2023-01-19T06:41:28.239Z,29.13
2023-01-19T06:46:32.494Z,28.27
2023-01-19T06:51:36.197Z,30.17
2023-01-19T06:56:44.548Z,45.58
2023-01-19T07:02:27.715Z,46.42
2023-01-19T07:07:30.489Z,56.93
2023-01-19T07:12:34.755Z,90.25
2023-01-19T07:17:39.341Z,143.10
2023-01-19T07:22:42.807Z,231.77
2023-01-19T07:27:46.076Z,102.78
2023-01-19T07:33:12.330Z,51.70
2023-01-19T07:38:18.869Z,37.78
2023-01-19T07:43:21.347Z,34.13
2023-01-19T07:48:27.868Z,38.53
2023-01-19T07:53:34.591Z,31.58
2023-01-19T07:58:38.821Z,29.47
2023-01-19T08:03:43.069Z,33.08
2023-01-19T08:08:52.542Z,30.97
2023-01-19T08:14:08.020Z,30.42
2023-01-19T08:19:41.519Z,27.67
2023-01-19T08:24:45.443Z,30.20
2023-01-19T08:29:49.635Z,28.83
2023-01-19T08:34:58.729Z,35.53
2023-01-19T08:40:16.601Z,29.95
2023-01-19T08:45:20.121Z,37.28
2023-01-19T08:50:27.856Z,34.80
2023-01-19T08:55:30.716Z,33.13
2023-01-19T09:00:35.178Z,29.87
2023-01-19T09:05:46.399Z,31.27
2023-01-19T09:10:53.217Z,33.53
2023-01-19T09:15:56.469Z,32.37
2023-01-19T09:21:02.423Z,41.88
2023-01-19T09:26:10.706Z,57.03
2023-01-19T09:31:21.146Z,59.83
2023-01-19T09:36:29.805Z,61.83
2023-01-19T09:41:36.641Z,52.97
2023-01-19T09:46:43.075Z,58.67
2023-01-19T09:52:25.347Z,44.77
2023-01-19T09:57:46.717Z,52.47
2023-01-19T10:02:58.300Z,52.85
2023-01-19T10:08:41.473Z,47.47
2023-01-19T10:13:55.539Z,57.88
2023-01-19T10:19:26.683Z,49.67
2023-01-19T10:24:47.712Z,45.95
2023-01-19T10:30:24.332Z,47.65
2023-01-19T10:35:29.668Z,49.87
2023-01-19T10:40:54.820Z,57.03
2023-01-19T10:46:01.573Z,65.10
2023-01-19T10:51:10.298Z,54.70
2023-01-19T10:56:21.881Z,60.70
2023-01-19T11:01:28.323Z,57.13
2023-01-19T11:06:33.308Z,62.45
2023-01-19T11:11:52.224Z,56.40
2023-01-19T11:17:17.137Z,59.17
2023-01-19T11:22:30.409Z,55.33
2023-01-19T11:27:52.197Z,56.30
2023-01-19T11:32:55.395Z,62.25
2023-01-19T11:38:21.573Z,54.63
2023-01-19T11:43:43.475Z,59.40
2023-01-19T11:49:04.640Z,54.17
2023-01-19T11:54:21.544Z,51.00
2023-01-19T11:59:26.827Z,48.45
2023-01-19T12:04:39.803Z,50.70
2023-01-19T12:09:51.208Z,55.72
2023-01-19T12:15:01.523Z,49.78
2023-01-19T12:20:28.575Z,53.83
2023-01-19T12:25:54.948Z,55.63
2023-01-19T12:31:17.150Z,62.53
2023-01-19T12:36:38.452Z,54.63
2023-01-19T12:41:58.340Z,67.00
2023-01-19T12:47:20.504Z,65.07
2023-01-19T12:52:29.546Z,67.93
2023-01-19T12:57:40.868Z,78.47
2023-01-19T13:02:46.877Z,73.57
2023-01-19T13:08:22.851Z,71.88
2023-01-19T13:13:31.586Z,82.23
2023-01-19T13:18:57.159Z,82.68
2023-01-19T13:24:25.176Z,96.90
2023-01-19T13:29:32.917Z,77.38
2023-01-19T13:34:46.715Z,78.78
2023-01-19T13:40:03.831Z,83.43
2023-01-19T13:45:31.474Z,70.03
2023-01-19T13:50:45.731Z,73.63
2023-01-19T13:56:07.168Z,68.63
2023-01-19T14:01:23.843Z,68.18
2023-01-19T14:07:31.111Z,68.97
2023-01-19T14:13:00.272Z,69.25
2023-01-19T14:18:12.026Z,65.73
2023-01-19T14:23:45.819Z,68.90
2023-01-19T14:28:53.283Z,71.38
2023-01-19T14:33:57.031Z,65.13
2023-01-19T14:39:16.620Z,60.70
2023-01-19T14:44:32.013Z,70.53
2023-01-19T14:49:38.862Z,63.80
2023-01-19T14:54:51.487Z,59.75
2023-01-19T14:59:55.377Z,62.77
2023-01-19T15:05:02.576Z,61.10
2023-01-19T15:10:17.541Z,57.03
2023-01-19T15:15:26.803Z,57.30
2023-01-19T15:20:29.920Z,59.42
2023-01-19T15:25:35.267Z,52.77
2023-01-19T15:30:39.551Z,52.90
2023-01-19T15:35:43.363Z,52.77
2023-01-19T15:40:51.396Z,56.08
2023-01-19T15:46:00.733Z,58.97
2023-01-19T15:51:03.571Z,58.33
2023-01-19T15:56:15.587Z,60.92
2023-01-19T16:01:20.818Z,63.73
2023-01-19T16:06:23.419Z,63.28
2023-01-19T16:11:28.701Z,64.32
2023-01-19T16:16:31.488Z,63.87
2023-01-19T16:21:34.099Z,68.93
2023-01-19T16:26:37.740Z,60.07
2023-01-19T16:31:42.495Z,65.05
2023-01-19T16:36:45.245Z,61.97
2023-01-19T16:41:49.293Z,63.33
2023-01-19T16:46:51.907Z,73.07
2023-01-19T16:51:54.657Z,65.10
2023-01-19T16:56:59.097Z,65.18
2023-01-19T17:02:01.899Z,70.10
2023-01-19T17:07:04.405Z,64.77
2023-01-19T17:12:08.247Z,60.42
2023-01-19T17:17:10.799Z,66.47
2023-01-19T17:22:13.949Z,60.08
2023-01-19T17:27:20.807Z,63.63
2023-01-19T17:32:23.392Z,56.27
2023-01-19T17:37:26.172Z,61.95
2023-01-19T17:42:30.348Z,59.73
2023-01-19T17:47:34.461Z,66.10
2023-01-19T17:52:36.914Z,69.40
2023-01-19T17:57:40.858Z,67.00
2023-01-19T18:02:43.091Z,60.60
2023-01-19T18:07:45.665Z,64.50
2023-01-19T18:12:49.240Z,54.58
2023-01-19T18:17:51.437Z,61.67
2023-01-19T18:22:53.604Z,63.67
2023-01-19T18:27:57.155Z,62.10
2023-01-19T18:32:59.380Z,73.63
2023-01-19T18:38:01.596Z,69.43
2023-01-19T18:43:05.172Z,65.00
2023-01-19T18:48:07.892Z,59.77
2023-01-19T18:53:10.136Z,73.40
2023-01-19T18:58:13.745Z,66.10
2023-01-19T19:03:16.751Z,65.95
2023-01-19T19:08:18.994Z,70.15
2023-01-19T19:13:22.680Z,70.83
2023-01-19T19:18:24.985Z,74.28
2023-01-19T19:23:27.365Z,86.40
2023-01-19T19:28:31.131Z,75.10
2023-01-19T19:33:34.232Z,75.18
2023-01-19T19:38:37.107Z,89.33
2023-01-19T19:43:42.161Z,91.03
2023-01-19T19:48:48.157Z,89.67
2023-01-19T19:53:51.893Z,76.28
2023-01-19T19:58:58.366Z,76.40
2023-01-19T20:04:08.248Z,77.57
2023-01-19T20:09:12.448Z,69.30
2023-01-19T20:14:16.539Z,72.93
2023-01-19T20:19:18.897Z,62.70
2023-01-19T20:24:22.346Z,64.10
2023-01-19T20:29:25.871Z,62.83
2023-01-19T20:34:33.368Z,55.92
2023-01-19T20:39:36.379Z,62.40
2023-01-19T20:44:40.362Z,54.22
2023-01-19T20:49:42.715Z,53.47
2023-01-19T20:54:45.449Z,56.60
2023-01-19T20:59:49.615Z,52.17
2023-01-19T21:04:51.976Z,43.73
2023-01-19T21:09:54.307Z,40.92
2023-01-19T21:14:57.835Z,56.25
2023-01-19T21:20:00.050Z,56.97
2023-01-19T21:25:02.228Z,57.22
2023-01-19T21:30:07.534Z,53.33
2023-01-19T21:35:10.834Z,50.50
2023-01-19T21:40:14.011Z,55.10
2023-01-19T21:45:17.749Z,50.20
2023-01-19T21:50:19.912Z,46.53
2023-01-19T21:55:22.073Z,48.73
2023-01-19T22:00:25.832Z,45.83
2023-01-19T22:05:28.028Z,48.03
2023-01-19T22:10:30.291Z,50.30
2023-01-19T22:15:34.037Z,45.88
2023-01-19T22:20:36.562Z,44.60
2023-01-19T22:25:38.801Z,48.30
2023-01-19T22:30:42.397Z,51.38
2023-01-19T22:35:44.710Z,55.57
2023-01-19T22:40:46.876Z,50.42
2023-01-19T22:45:50.564Z,55.60
2023-01-19T22:50:56.091Z,57.72
2023-01-19T22:55:58.271Z,56.53
2023-01-19T23:01:06.897Z,57.90
2023-01-19T23:06:11.726Z,54.08
2023-01-19T23:11:16.541Z,49.93
2023-01-19T23:16:21.397Z,52.75
2023-01-19T23:21:26.132Z,58.90
2023-01-19T23:26:30.034Z,44.87
2023-01-19T23:31:36.769Z,40.00
2023-01-19T23:36:41.207Z,34.53
2023-01-19T23:41:43.797Z,35.03
2023-01-19T23:46:47.453Z,25.23
2023-01-19T23:51:49.614Z,27.57
2023-01-19T23:56:51.872Z,27.35
